Time;durP1;ratioP1;P1;durP2;ratioP2;P2;SDS_P1;SDS_P2;PMS_P1;PMS_P2;Temp;Humidity;BMP_temperature;BMP_pressure;BME280_temperature;BME280_humidity;BME280_pressure;Samples;Min_cycle;Max_cycle;Signal;HPM_P1;HPM_P2
2023/07/26 00:01:59;;;;;;;5.07;2.83;;;;;;;17.36;100.00;97584.22;4485747;32;20583;-66
2023/07/26 00:04:27;;;;;;;13.27;3.50;;;;;;;17.31;100.00;97592.78;4486065;31;20116;-66
2023/07/26 00:06:55;;;;;;;5.18;3.37;;;;;;;17.35;100.00;97596.66;4486024;32;20088;-66
2023/07/26 00:09:23;;;;;;;7.43;3.67;;;;;;;17.26;100.00;97589.97;4485907;31;20148;-65
2023/07/26 00:11:51;;;;;;;6.57;3.47;;;;;;;17.19;100.00;97584.69;4485842;32;20163;-65
2023/07/26 00:14:19;;;;;;;5.53;2.90;;;;;;;17.16;100.00;97561.28;4485977;32;20093;-65
2023/07/26 00:16:50;;;;;;;7.90;3.33;;;;;;;17.22;100.00;97564.13;4485949;31;20089;-65
2023/07/26 00:19:23;;;;;;;5.57;3.20;;;;;;;17.15;100.00;97575.56;4485911;32;20146;-65
2023/07/26 00:21:50;;;;;;;4.45;3.25;;;;;;;17.13;100.00;97572.28;4485819;31;20095;-65
2023/07/26 00:24:18;;;;;;;4.70;2.90;;;;;;;17.14;100.00;97559.88;4486181;32;20097;-65
2023/07/26 00:26:45;;;;;;;4.85;2.97;;;;;;;17.22;100.00;97545.59;4485974;32;20096;-65
2023/07/26 00:29:13;;;;;;;5.15;2.65;;;;;;;17.22;100.00;97540.31;4485794;31;20132;-65
2023/07/26 00:31:41;;;;;;;4.70;2.58;;;;;;;17.14;100.00;97528.94;4485790;32;20115;-65
2023/07/26 00:34:09;;;;;;;5.95;2.40;;;;;;;17.12;100.00;97507.16;4486086;31;20128;-65
2023/07/26 00:36:36;;;;;;;3.87;2.72;;;;;;;17.05;100.00;97500.25;4485963;31;20563;-65
2023/07/26 00:39:04;;;;;;;4.47;3.00;;;;;;;17.03;100.00;97489.88;4485851;32;20096;-65
2023/07/26 00:41:32;;;;;;;5.43;3.15;;;;;;;17.00;100.00;97474.44;4485610;32;20434;-65
2023/07/26 00:44:00;;;;;;;8.45;2.50;;;;;;;16.97;100.00;97477.50;4485850;31;20118;-65
2023/07/26 00:46:28;;;;;;;3.28;2.40;;;;;;;16.94;100.00;97472.63;4485557;32;20512;-65
2023/07/26 00:48:57;;;;;;;4.80;2.60;;;;;;;16.92;100.00;97462.25;4484256;32;20100;-65
2023/07/26 00:51:25;;;;;;;6.28;2.50;;;;;;;16.90;100.00;97450.28;4480224;32;20135;-65
2023/07/26 00:53:53;;;;;;;5.35;2.30;;;;;;;16.89;100.00;97453.94;4468881;32;20534;-65
2023/07/26 00:56:21;;;;;;;4.03;1.80;;;;;;;16.95;100.00;97461.03;4468714;32;20097;-65
2023/07/26 00:58:49;;;;;;;3.87;2.50;;;;;;;16.98;100.00;97456.13;4469945;32;20097;-65
2023/07/26 01:01:17;;;;;;;4.35;2.47;;;;;;;16.97;100.00;97451.03;4468616;32;20123;-65
2023/07/26 01:03:45;;;;;;;3.47;2.25;;;;;;;17.00;100.00;97440.87;4469836;32;20456;-65
2023/07/26 01:06:42;;;;;;;3.97;2.28;;;;;;;16.94;100.00;97444.34;4469821;32;20165;-65
2023/07/26 01:09:15;;;;;;;5.37;2.72;;;;;;;16.94;100.00;97438.22;4469769;32;20488;-66
2023/07/26 01:11:52;;;;;;;4.05;2.65;;;;;;;16.95;100.00;97435.38;4469046;32;20799;-65
2023/07/26 01:14:28;;;;;;;4.72;2.72;;;;;;;16.98;100.00;97428.88;4477273;32;20488;-65
2023/07/26 01:16:55;;;;;;;5.75;2.62;;;;;;;16.97;100.00;97406.06;4484261;32;20084;-65
2023/07/26 01:19:23;;;;;;;4.57;2.78;;;;;;;16.91;100.00;97406.91;4484192;32;20497;-65
2023/07/26 01:21:50;;;;;;;5.10;2.67;;;;;;;16.83;100.00;97410.59;4485289;32;20546;-65
2023/07/26 01:24:17;;;;;;;4.25;2.90;;;;;;;16.92;100.00;97430.50;4485740;32;20176;-65
2023/07/26 01:26:45;;;;;;;4.45;3.10;;;;;;;16.95;100.00;97424.78;4485489;32;20104;-66
2023/07/26 01:29:12;;;;;;;6.57;2.70;;;;;;;17.00;100.00;97426.81;4485404;32;20120;-65
2023/07/26 01:31:39;;;;;;;4.28;3.00;;;;;;;17.05;100.00;97416.41;4485527;31;20153;-66
2023/07/26 01:34:07;;;;;;;3.30;2.30;;;;;;;16.98;100.00;97387.34;4485458;32;20135;-65
2023/07/26 01:36:35;;;;;;;3.45;2.62;;;;;;;17.05;100.00;97376.72;4484063;32;20132;-68
2023/07/26 01:39:06;;;;;;;3.78;2.72;;;;;;;17.04;100.00;97380.41;4483957;32;20105;-67
2023/07/26 01:41:35;;;;;;;4.20;2.70;;;;;;;17.00;100.00;97390.59;4485426;32;20115;-67
2023/07/26 01:44:04;;;;;;;3.90;2.72;;;;;;;16.89;100.00;97407.13;4484115;32;20093;-67
2023/07/26 01:46:32;;;;;;;5.22;2.95;;;;;;;16.90;100.00;97410.59;4484124;32;20080;-67
2023/07/26 01:49:00;;;;;;;5.55;2.72;;;;;;;16.87;100.00;97419.75;4485135;32;20088;-67
2023/07/26 01:51:27;;;;;;;4.57;3.28;;;;;;;16.84;100.00;97433.37;4484968;32;20097;-67
2023/07/26 01:53:55;;;;;;;6.10;3.50;;;;;;;16.84;100.00;97431.53;4485505;32;20151;-67
2023/07/26 01:56:24;;;;;;;5.07;3.05;;;;;;;16.81;100.00;97441.72;4484118;32;20135;-67
2023/07/26 01:58:52;;;;;;;7.15;3.17;;;;;;;16.77;100.00;97441.31;4485390;32;20123;-67
2023/07/26 02:01:19;;;;;;;10.02;3.62;;;;;;;16.74;100.00;97446.22;4485226;32;20124;-67
2023/07/26 02:03:47;;;;;;;5.43;3.75;;;;;;;16.68;100.00;97450.50;4484928;32;20506;-67
2023/07/26 02:06:15;;;;;;;5.03;3.15;;;;;;;16.74;100.00;97465.53;4485201;32;20099;-67
2023/07/26 02:08:43;;;;;;;5.03;3.92;;;;;;;16.74;100.00;97462.91;4485063;31;20104;-68
2023/07/26 02:11:11;;;;;;;7.30;4.25;;;;;;;16.74;100.00;97454.97;4485160;32;20398;-68
2023/07/26 02:13:39;;;;;;;7.40;3.60;;;;;;;16.73;100.00;97466.59;4483802;32;20179;-68
2023/07/26 02:16:06;;;;;;;5.50;3.78;;;;;;;16.73;100.00;97471.88;4484935;32;20100;-67
2023/07/26 02:18:34;;;;;;;6.78;4.53;;;;;;;16.75;100.00;97476.97;4484939;32;20097;-68
2023/07/26 02:21:01;;;;;;;16.08;4.05;;;;;;;16.73;100.00;97468.41;4484886;32;20100;-68
2023/07/26 02:23:28;;;;;;;7.78;4.10;;;;;;;16.74;100.00;97476.13;4484421;32;20115;-68
2023/07/26 02:25:56;;;;;;;6.30;3.65;;;;;;;16.72;100.00;97483.47;4484914;32;20515;-68
2023/07/26 02:28:24;;;;;;;6.75;4.30;;;;;;;16.77;100.00;97480.19;4484662;32;20084;-68
2023/07/26 02:30:51;;;;;;;8.48;4.62;;;;;;;16.73;100.00;97477.16;4485068;32;20093;-68
2023/07/26 02:33:19;;;;;;;6.72;4.05;;;;;;;16.71;100.00;97479.19;4484670;32;20625;-68
2023/07/26 02:35:47;;;;;;;9.73;4.70;;;;;;;16.73;100.00;97484.25;4484888;32;20102;-68
2023/07/26 02:38:15;;;;;;;7.32;4.07;;;;;;;16.70;100.00;97490.81;4484727;31;20085;-68
2023/07/26 02:40:42;;;;;;;12.77;4.37;;;;;;;16.72;100.00;97495.88;4484689;32;20119;-68
2023/07/26 02:43:11;;;;;;;5.53;3.50;;;;;;;16.66;100.00;97485.09;4484688;31;20130;-68
2023/07/26 02:45:40;;;;;;;12.98;3.75;;;;;;;16.66;100.00;97474.53;4484672;32;20080;-68
2023/07/26 02:48:08;;;;;;;5.95;3.17;;;;;;;16.66;100.00;97468.44;4484263;32;20517;-68
2023/07/26 02:50:36;;;;;;;5.30;3.85;;;;;;;16.68;100.00;97472.50;4484696;32;20509;-68
2023/07/26 02:53:03;;;;;;;5.82;3.65;;;;;;;16.64;100.00;97475.78;4484203;32;20179;-68
2023/07/26 02:55:31;;;;;;;7.78;3.70;;;;;;;16.65;100.00;97469.44;4484497;32;20119;-68
2023/07/26 02:57:59;;;;;;;8.65;3.72;;;;;;;16.64;100.00;97460.72;4484657;32;20115;-68
2023/07/26 03:00:26;;;;;;;5.03;3.35;;;;;;;16.56;100.00;97462.75;4484496;32;20164;-68
2023/07/26 03:02:54;;;;;;;6.45;3.20;;;;;;;16.57;100.00;97467.03;4484163;32;20101;-68
2023/07/26 03:05:22;;;;;;;5.68;3.65;;;;;;;16.53;100.00;97457.88;4484393;31;20084;-68
2023/07/26 03:07:50;;;;;;;4.47;2.95;;;;;;;16.51;100.00;97455.47;4484471;32;20634;-68
2023/07/26 03:10:17;;;;;;;6.03;3.22;;;;;;;16.49;100.00;97463.59;4484385;31;20093;-68
2023/07/26 03:12:45;;;;;;;12.32;2.80;;;;;;;16.49;100.00;97455.66;4484155;32;20092;-68
2023/07/26 03:15:12;;;;;;;5.25;3.00;;;;;;;16.52;100.00;97458.91;4484211;32;20457;-68
2023/07/26 03:17:40;;;;;;;7.55;3.37;;;;;;;16.49;100.00;97463.59;4484033;32;20101;-68
2023/07/26 03:20:08;;;;;;;5.82;2.75;;;;;;;16.48;100.00;97450.59;4484342;31;20092;-68
2023/07/26 03:22:36;;;;;;;4.22;2.83;;;;;;;16.50;100.00;97453.81;4484384;31;20153;-68
2023/07/26 03:25:03;;;;;;;6.87;3.08;;;;;;;16.47;100.00;97460.34;4484084;32;20489;-68
2023/07/26 03:27:31;;;;;;;7.15;3.65;;;;;;;16.49;100.00;97460.94;4484200;32;20097;-68
2023/07/26 03:30:00;;;;;;;4.72;3.10;;;;;;;16.49;100.00;97474.16;4483861;31;20159;-68
2023/07/26 03:32:28;;;;;;;3.75;3.08;;;;;;;16.49;100.00;97484.75;4484042;31;20096;-68
2023/07/26 03:34:56;;;;;;;2.90;2.30;;;;;;;16.48;100.00;97488.41;4484085;32;20100;-68
2023/07/26 03:37:23;;;;;;;4.00;2.70;;;;;;;16.47;100.00;97486.78;4486288;31;20177;-68
2023/07/26 03:39:51;;;;;;;4.07;2.42;;;;;;;16.53;100.00;97494.91;4486072;31;20104;-68
2023/07/26 03:42:18;;;;;;;4.05;2.65;;;;;;;16.55;100.00;97495.50;4486214;32;20096;-68
2023/07/26 03:44:46;;;;;;;4.22;2.00;;;;;;;16.57;100.00;97511.97;4485914;32;20114;-68
2023/07/26 03:47:15;;;;;;;2.92;1.85;;;;;;;16.56;100.00;97524.37;4486237;32;20477;-68
2023/07/26 03:49:42;;;;;;;4.45;2.25;;;;;;;16.61;100.00;97526.44;4485694;32;20115;-68
2023/07/26 03:52:10;;;;;;;3.28;2.17;;;;;;;16.56;100.00;97528.84;4486117;32;20126;-68
2023/07/26 03:54:38;;;;;;;3.35;2.05;;;;;;;16.61;100.00;97532.50;4485844;31;20487;-68
2023/07/26 03:57:07;;;;;;;4.82;1.77;;;;;;;16.63;100.00;97527.03;4486180;31;20120;-68
2023/07/26 03:59:36;;;;;;;5.57;2.12;;;;;;;16.54;100.00;97530.91;4486047;31;20096;-68
2023/07/26 04:02:04;;;;;;;3.85;1.80;;;;;;;16.55;100.00;97530.69;4485036;32;20122;-68
2023/07/26 04:04:35;;;;;;;3.78;1.48;;;;;;;16.57;100.00;97533.13;4487395;31;20088;-67
2023/07/26 04:07:03;;;;;;;2.83;1.30;;;;;;;16.57;100.00;97527.84;4488807;31;20119;-68
2023/07/26 04:09:30;;;;;;;4.05;1.30;;;;;;;16.53;100.00;97527.44;4488750;31;20100;-67
2023/07/26 04:11:58;;;;;;;5.47;1.85;;;;;;;16.64;100.00;97534.75;4486505;31;20100;-67
2023/07/26 04:14:25;;;;;;;4.95;1.35;;;;;;;16.67;100.00;97533.53;4482058;31;20118;-67
2023/07/26 04:16:55;;;;;;;4.85;1.30;;;;;;;16.68;100.00;97541.25;4487696;31;20403;-67
2023/07/26 04:19:23;;;;;;;2.42;1.30;;;;;;;16.61;100.00;97544.94;4484416;31;20165;-67
2023/07/26 04:21:51;;;;;;;1.67;1.20;;;;;;;16.58;100.00;97540.84;4470221;32;20164;-67
2023/07/26 04:24:19;;;;;;;1.60;1.10;;;;;;;16.60;100.00;97538.81;4480958;31;20092;-67
2023/07/26 04:26:46;;;;;;;3.37;1.20;;;;;;;16.55;100.00;97537.78;4488365;31;20107;-67
2023/07/26 04:29:14;;;;;;;1.90;1.10;;;;;;;16.56;100.00;97547.37;4487304;31;20456;-67
2023/07/26 04:31:41;;;;;;;3.55;0.98;;;;;;;16.57;100.00;97538.41;4482933;31;20437;-67
2023/07/26 04:34:09;;;;;;;4.00;1.50;;;;;;;16.60;100.00;97545.94;4487852;31;20099;-67
2023/07/26 04:36:36;;;;;;;1.73;1.45;;;;;;;16.57;100.00;97531.28;4498560;31;20104;-67
2023/07/26 04:39:04;;;;;;;1.58;0.93;;;;;;;16.59;100.00;97523.16;4497452;31;20230;-67
2023/07/26 04:41:31;;;;;;;2.42;1.10;;;;;;;16.47;100.00;97525.59;4477409;31;20119;-67
2023/07/26 04:43:59;;;;;;;2.78;1.35;;;;;;;16.52;100.00;97531.13;4489545;31;20115;-67
2023/07/26 04:46:26;;;;;;;3.22;1.02;;;;;;;16.55;100.00;97524.56;4485008;31;20449;-67
2023/07/26 04:48:54;;;;;;;1.65;1.00;;;;;;;16.52;100.00;97525.81;4485066;31;20172;-67
2023/07/26 04:51:23;;;;;;;1.42;1.05;;;;;;;16.61;100.00;97526.44;4485342;31;20088;-67
2023/07/26 04:53:51;;;;;;;3.42;1.20;;;;;;;16.57;100.00;97520.72;4487183;31;20106;-67
2023/07/26 04:56:19;;;;;;;2.33;1.10;;;;;;;16.67;100.00;97528.25;4485188;31;20127;-67
2023/07/26 04:58:46;;;;;;;5.78;1.23;;;;;;;16.83;100.00;97521.69;4469652;32;20092;-67
2023/07/26 05:01:14;;;;;;;2.40;1.35;;;;;;;16.90;100.00;97517.22;4482172;31;20517;-66
2023/07/26 05:03:41;;;;;;;1.92;1.30;;;;;;;16.98;100.00;97524.09;4484806;31;20414;-67
2023/07/26 05:06:10;;;;;;;4.93;1.30;;;;;;;17.07;100.00;97522.03;4484642;31;20097;-67
2023/07/26 05:08:41;;;;;;;4.25;1.20;;;;;;;17.11;100.00;97518.78;4486056;31;20100;-67
2023/07/26 05:11:09;;;;;;;3.42;1.45;;;;;;;17.27;100.00;97521.97;4483950;31;20155;-67
2023/07/26 05:13:36;;;;;;;1.67;1.20;;;;;;;17.48;100.00;97523.47;4486955;31;20473;-65
2023/07/26 05:16:05;;;;;;;3.12;1.40;;;;;;;17.62;100.00;97514.41;4490310;31;20108;-67
2023/07/26 05:18:32;;;;;;;2.22;1.20;;;;;;;17.47;100.00;97522.69;4484956;31;20462;-65
2023/07/26 05:21:00;;;;;;;4.05;1.27;;;;;;;17.29;100.00;97539.25;4483569;31;20576;-66
2023/07/26 05:23:28;;;;;;;5.43;1.58;;;;;;;17.35;100.00;97538.41;4488123;31;20091;-67
2023/07/26 05:25:55;;;;;;;2.53;1.60;;;;;;;17.26;100.00;97544.16;4485229;31;20130;-66
2023/07/26 05:28:23;;;;;;;3.28;1.30;;;;;;;17.27;100.00;97532.53;4483258;31;20097;-67
2023/07/26 05:30:55;;;;;;;2.20;1.02;;;;;;;17.29;100.00;97549.00;4485779;31;20104;-67
2023/07/26 05:33:23;;;;;;;1.60;1.23;;;;;;;17.31;100.00;97553.09;4484884;31;20092;-67
2023/07/26 05:35:51;;;;;;;1.65;1.10;;;;;;;17.17;100.00;97554.97;4483489;31;20109;-67
2023/07/26 05:38:19;;;;;;;2.83;1.17;;;;;;;17.17;100.00;97556.81;4481034;31;20157;-67
2023/07/26 05:40:48;;;;;;;1.30;1.00;;;;;;;17.20;100.00;97562.50;4479405;31;20100;-67
2023/07/26 05:43:18;;;;;;;2.60;1.20;;;;;;;17.18;100.00;97561.91;4482846;31;20130;-67
2023/07/26 05:45:45;;;;;;;2.12;1.12;;;;;;;17.20;100.00;97556.41;4484360;31;20127;-67
2023/07/26 05:48:14;;;;;;;1.90;1.20;;;;;;;17.40;100.00;97564.25;4482717;31;20112;-67
2023/07/26 05:50:41;;;;;;;1.87;1.10;;;;;;;17.44;100.00;97572.56;4484325;31;20154;-67
2023/07/26 05:53:09;;;;;;;1.25;0.88;;;;;;;17.33;100.00;97566.91;4485048;31;20556;-66
2023/07/26 05:55:36;;;;;;;1.08;0.90;;;;;;;17.43;100.00;97574.44;4484156;31;20567;-67
2023/07/26 05:58:04;;;;;;;6.55;1.25;;;;;;;17.22;100.00;97580.00;4482694;31;20088;-67
2023/07/26 06:00:31;;;;;;;1.42;1.00;;;;;;;17.23;100.00;97594.84;4484744;31;20160;-66
2023/07/26 06:03:01;;;;;;;1.25;0.85;;;;;;;17.06;100.00;97590.00;4481545;31;20088;-66
2023/07/26 06:05:28;;;;;;;2.97;1.00;;;;;;;17.09;100.00;97594.88;4484839;31;20088;-67
2023/07/26 06:07:55;;;;;;;3.58;1.20;;;;;;;17.10;100.00;97601.81;4480603;31;20157;-67
2023/07/26 06:10:24;;;;;;;4.75;1.12;;;;;;;17.13;100.00;97598.75;4483648;31;20648;-67
2023/07/26 06:12:52;;;;;;;9.80;1.27;;;;;;;17.19;100.00;97591.81;4476181;31;20566;-67
2023/07/26 06:15:21;;;;;;;2.25;1.00;;;;;;;17.09;100.00;97592.25;4479460;31;20164;-67
2023/07/26 06:17:49;;;;;;;2.58;0.90;;;;;;;16.97;100.00;97609.78;4480477;31;20096;-67
2023/07/26 06:20:16;;;;;;;1.25;1.00;;;;;;;16.93;100.00;97598.00;4480586;31;20502;-67
2023/07/26 06:22:43;;;;;;;4.00;1.30;;;;;;;17.03;100.00;97596.56;4480867;31;20431;-66
2023/07/26 06:25:11;;;;;;;1.40;0.98;;;;;;;17.12;100.00;97585.72;4481261;31;20100;-67
2023/07/26 06:27:39;;;;;;;1.65;1.02;;;;;;;17.18;100.00;97587.53;4480044;31;20096;-67
2023/07/26 06:30:07;;;;;;;3.37;0.90;;;;;;;17.46;100.00;97589.88;4477376;31;20144;-67
2023/07/26 06:32:35;;;;;;;1.98;1.00;;;;;;;17.44;100.00;97593.75;4479500;31;20088;-67
2023/07/26 06:35:03;;;;;;;2.55;1.27;;;;;;;17.28;100.00;97603.00;4480333;31;20092;-67
2023/07/26 06:37:31;;;;;;;2.17;1.30;;;;;;;17.18;100.00;97598.97;4481474;31;20154;-67
2023/07/26 06:40:01;;;;;;;5.32;1.50;;;;;;;16.99;100.00;97610.41;4482081;31;20440;-68
2023/07/26 06:42:32;;;;;;;4.82;1.50;;;;;;;16.82;100.00;97610.81;4481844;31;20129;-68
2023/07/26 06:45:01;;;;;;;6.82;1.58;;;;;;;16.66;100.00;97616.50;4481627;31;20557;-68
2023/07/26 06:47:31;;;;;;;1.67;0.93;;;;;;;16.59;100.00;97615.69;4481064;31;20482;-68
2023/07/26 06:49:58;;;;;;;8.13;1.40;;;;;;;16.51;100.00;97614.06;4479396;32;20126;-68
2023/07/26 06:52:30;;;;;;;5.47;1.40;;;;;;;16.68;100.00;97620.59;4480201;31;20096;-68
2023/07/26 06:55:02;;;;;;;1.67;0.95;;;;;;;16.61;100.00;97624.25;4479592;31;20122;-69
2023/07/26 06:57:29;;;;;;;3.92;1.35;;;;;;;16.70;100.00;97625.69;4477017;31;20454;-69
2023/07/26 06:59:56;;;;;;;1.77;1.15;;;;;;;16.62;100.00;97625.88;4477364;31;20514;-69
2023/07/26 07:02:23;;;;;;;2.90;1.67;;;;;;;16.56;100.00;97638.06;4478617;31;20592;-69
2023/07/26 07:04:51;;;;;;;1.27;0.90;;;;;;;16.52;100.00;97652.72;4478785;31;20123;-68
2023/07/26 07:07:18;;;;;;;5.03;1.20;;;;;;;16.50;100.00;97655.56;4480211;31;20155;-68
2023/07/26 07:09:47;;;;;;;6.25;1.20;;;;;;;16.46;100.00;97649.06;4476604;31;20169;-68
2023/07/26 07:12:16;;;;;;;1.73;1.08;;;;;;;16.46;100.00;97651.69;4481236;31;20169;-68
2023/07/26 07:14:43;;;;;;;3.62;1.55;;;;;;;16.28;100.00;97647.00;4478669;31;20481;-68
2023/07/26 07:17:10;;;;;;;1.70;1.20;;;;;;;16.29;100.00;97655.72;4481882;31;20192;-68
2023/07/26 07:19:38;;;;;;;2.62;1.30;;;;;;;16.25;100.00;97657.16;4479282;31;20154;-68
2023/07/26 07:22:05;;;;;;;2.83;1.42;;;;;;;16.24;100.00;97651.06;4482499;31;20579;-68
2023/07/26 07:24:34;;;;;;;4.97;1.40;;;;;;;16.14;100.00;97656.75;4474525;31;20165;-68
2023/07/26 07:27:03;;;;;;;2.10;1.23;;;;;;;16.17;100.00;97675.84;4478223;32;20092;-68
2023/07/26 07:29:32;;;;;;;3.05;1.55;;;;;;;16.11;100.00;97670.34;4478410;31;20108;-68
2023/07/26 07:32:00;;;;;;;2.50;1.65;;;;;;;16.17;100.00;97671.38;4476437;32;20132;-68
2023/07/26 07:34:47;;;;;;;2.15;1.58;;;;;;;16.12;100.00;97663.22;4475999;31;20127;-68
2023/07/26 07:37:14;;;;;;;2.15;1.67;;;;;;;16.03;100.00;97685.56;4481088;31;20462;-68
2023/07/26 07:39:44;;;;;;;2.67;1.73;;;;;;;16.11;100.00;97685.41;4480991;32;20160;-68
2023/07/26 07:42:13;;;;;;;2.37;1.80;;;;;;;16.11;100.00;97683.56;4481757;31;20489;-68
2023/07/26 07:44:40;;;;;;;3.20;1.70;;;;;;;16.05;100.00;97689.63;4480985;31;20101;-69
2023/07/26 07:47:11;;;;;;;2.08;1.75;;;;;;;16.06;100.00;97693.88;4479501;31;20118;-68
2023/07/26 07:49:42;;;;;;;2.97;1.65;;;;;;;16.04;100.00;97701.22;4478994;32;20167;-68
2023/07/26 07:52:09;;;;;;;3.55;2.05;;;;;;;16.10;100.00;97708.34;4477876;31;20085;-69
2023/07/26 07:54:36;;;;;;;2.67;1.98;;;;;;;16.20;100.00;97704.50;4470048;31;20105;-69
2023/07/26 07:57:04;;;;;;;4.43;2.20;;;;;;;16.29;100.00;97716.50;4482535;31;20104;-68
2023/07/26 07:59:31;;;;;;;4.45;3.03;;;;;;;16.33;100.00;97704.53;4477259;31;20188;-69
2023/07/26 08:01:58;;;;;;;3.67;2.05;;;;;;;16.29;100.00;97708.59;4481727;31;20104;-69
2023/07/26 08:04:26;;;;;;;2.83;2.00;;;;;;;16.39;100.00;97713.50;4478818;31;20097;-68
2023/07/26 08:06:53;;;;;;;3.95;2.10;;;;;;;16.41;100.00;97711.47;4478642;31;20517;-68
2023/07/26 08:09:23;;;;;;;2.75;1.98;;;;;;;16.37;100.00;97708.41;4482074;31;20105;-69
2023/07/26 08:11:50;;;;;;;3.15;1.80;;;;;;;16.41;100.00;97708.81;4477737;31;20136;-69
2023/07/26 08:14:18;;;;;;;5.28;2.03;;;;;;;16.49;100.00;97717.38;4476967;31;20108;-69
2023/07/26 08:16:45;;;;;;;3.10;1.87;;;;;;;16.45;100.00;97718.78;4481771;31;20096;-69
2023/07/26 08:19:15;;;;;;;6.47;2.00;;;;;;;16.49;100.00;97722.66;4481071;31;20113;-69
2023/07/26 08:21:42;;;;;;;2.45;1.77;;;;;;;16.55;100.00;97714.94;4479501;31;20129;-69
2023/07/26 08:24:09;;;;;;;2.55;1.80;;;;;;;16.71;100.00;97705.81;4480356;31;20131;-69
2023/07/26 08:26:38;;;;;;;2.53;1.92;;;;;;;16.66;100.00;97711.72;4477921;31;20100;-69
2023/07/26 08:29:05;;;;;;;2.50;1.90;;;;;;;16.74;100.00;97719.44;4481105;31;20092;-69
2023/07/26 08:31:32;;;;;;;4.15;1.65;;;;;;;16.84;100.00;97735.72;4470725;31;20103;-69
2023/07/26 08:34:03;;;;;;;3.08;1.75;;;;;;;16.90;100.00;97735.97;4478368;31;20542;-69
2023/07/26 08:36:31;;;;;;;2.62;1.67;;;;;;;17.10;100.00;97738.63;4481196;31;20103;-69
2023/07/26 08:38:58;;;;;;;3.50;2.15;;;;;;;17.05;100.00;97744.53;4473436;32;20135;-69
2023/07/26 08:41:26;;;;;;;2.35;1.75;;;;;;;17.09;100.00;97748.38;4480600;31;20142;-69
2023/07/26 08:43:59;;;;;;;3.00;1.90;;;;;;;17.25;100.00;97752.44;4474291;31;20128;-69
2023/07/26 08:46:28;;;;;;;4.25;1.65;;;;;;;17.30;100.00;97746.53;4477798;31;20152;-68
2023/07/26 08:48:56;;;;;;;3.37;1.92;;;;;;;17.24;100.00;97761.41;4478180;31;20123;-68
2023/07/26 08:51:25;;;;;;;3.03;1.70;;;;;;;17.11;100.00;97754.28;4476778;31;20114;-68
2023/07/26 08:53:54;;;;;;;4.05;1.58;;;;;;;17.10;100.00;97768.53;4473093;31;20105;-68
2023/07/26 08:56:22;;;;;;;4.22;1.62;;;;;;;17.12;100.00;97768.31;4470550;32;20104;-68
2023/07/26 08:58:49;;;;;;;5.47;1.77;;;;;;;17.08;100.00;97783.81;4470807;31;20157;-68
2023/07/26 09:01:16;;;;;;;2.80;1.90;;;;;;;17.10;100.00;97776.47;4481018;32;20470;-68
2023/07/26 09:03:44;;;;;;;1.90;1.70;;;;;;;17.09;100.00;97787.25;4479624;31;20104;-68
2023/07/26 09:06:13;;;;;;;2.33;1.83;;;;;;;17.05;100.00;97783.37;4476804;32;20702;-68
2023/07/26 09:08:42;;;;;;;2.10;1.90;;;;;;;17.10;100.00;97787.06;4476042;31;20137;-68
2023/07/26 09:11:23;;;;;;;2.75;2.15;;;;;;;17.13;100.00;97791.94;4478642;32;20092;-67
2023/07/26 09:13:57;;;;;;;3.75;2.40;;;;;;;17.32;100.00;97794.78;4478277;31;20101;-68
2023/07/26 09:16:30;;;;;;;3.05;1.98;;;;;;;17.49;100.00;97824.31;4478517;32;20087;-67
2023/07/26 09:19:02;;;;;;;3.90;2.30;;;;;;;17.53;100.00;97805.16;4479937;32;20709;-67
2023/07/26 09:21:32;;;;;;;3.70;1.87;;;;;;;17.74;100.00;97787.41;4480054;31;20084;-67
2023/07/26 09:24:03;;;;;;;2.90;2.05;;;;;;;17.97;100.00;97791.44;4474597;31;20944;-67
2023/07/26 09:26:39;;;;;;;2.45;2.05;;;;;;;18.32;100.00;97788.44;4479703;31;20093;-67
2023/07/26 09:29:13;;;;;;;4.05;2.62;;;;;;;18.87;100.00;97790.63;4481829;31;20615;-67
2023/07/26 09:31:43;;;;;;;1.75;1.60;;;;;;;18.87;100.00;97780.81;4482267;32;20110;-67
2023/07/26 09:34:14;;;;;;;5.03;1.70;;;;;;;18.98;100.00;97797.91;4481171;31;20104;-67
2023/07/26 09:36:44;;;;;;;7.70;1.95;;;;;;;19.39;100.00;97806.37;4479757;31;20125;-67
2023/07/26 09:39:13;;;;;;;4.85;2.00;;;;;;;19.32;100.00;97793.97;4480814;31;20100;-67
2023/07/26 09:41:41;;;;;;;2.33;1.75;;;;;;;19.87;100.00;97784.47;4475603;31;20092;-67
2023/07/26 09:44:19;;;;;;;2.50;1.85;;;;;;;19.67;100.00;97769.53;4478470;31;20100;-67
2023/07/26 09:46:56;;;;;;;3.90;2.00;;;;;;;19.70;100.00;97778.91;4483959;32;20096;-67
2023/07/26 09:49:27;;;;;;;3.72;1.80;;;;;;;19.96;100.00;97783.13;4481545;31;20556;-67
2023/07/26 09:51:57;;;;;;;4.05;1.42;;;;;;;20.26;100.00;97782.37;4483544;32;20123;-67
2023/07/26 09:54:32;;;;;;;2.35;1.90;;;;;;;20.09;100.00;97797.31;4484027;31;20543;-67
2023/07/26 09:57:05;;;;;;;1.73;1.20;;;;;;;19.75;100.00;97802.16;4482809;31;20518;-67
2023/07/26 09:59:37;;;;;;;3.12;1.90;;;;;;;19.87;100.00;97805.72;4482736;31;20088;-67
2023/07/26 10:02:09;;;;;;;1.90;1.52;;;;;;;19.87;100.00;97799.63;4482876;32;20476;-67
2023/07/26 10:04:53;;;;;;;4.03;1.50;;;;;;;19.73;100.00;97797.06;4483634;31;20749;-67
2023/07/26 10:07:23;;;;;;;3.35;2.40;;;;;;;19.81;100.00;97803.97;4482511;32;20459;-67
2023/07/26 10:09:52;;;;;;;3.28;1.83;;;;;;;19.48;100.00;97807.72;4482366;32;20155;-67
2023/07/26 10:12:24;;;;;;;2.58;1.80;;;;;;;19.33;100.00;97819.50;4482977;32;20155;-67
2023/07/26 10:14:55;;;;;;;3.90;2.20;;;;;;;19.08;100.00;97829.28;4472534;32;20101;-67
2023/07/26 10:17:26;;;;;;;2.08;1.52;;;;;;;18.76;100.00;97821.31;4468846;32;20089;-67
2023/07/26 10:19:55;;;;;;;2.70;1.90;;;;;;;18.49;100.00;97804.72;4468160;32;20088;-67
2023/07/26 10:22:23;;;;;;;2.35;1.95;;;;;;;18.57;100.00;97813.22;4467364;32;20153;-67
2023/07/26 10:24:50;;;;;;;2.05;1.85;;;;;;;18.74;100.00;97821.50;4467879;32;20105;-66
2023/07/26 10:27:18;;;;;;;2.67;2.15;;;;;;;18.83;100.00;97822.06;4468960;32;20092;-67
2023/07/26 10:29:47;;;;;;;2.58;2.12;;;;;;;19.23;100.00;97819.16;4468884;32;20160;-67
2023/07/26 10:32:14;;;;;;;2.17;1.80;;;;;;;19.13;100.00;97829.44;4469156;32;20473;-68
2023/07/26 10:34:42;;;;;;;2.45;1.85;;;;;;;19.25;100.00;97822.41;4468955;32;20489;-69
2023/07/26 10:37:18;;;;;;;1.92;1.55;;;;;;;19.52;100.00;97824.84;4469291;32;20088;-67
2023/07/26 10:39:49;;;;;;;2.60;1.45;;;;;;;19.50;100.00;97824.28;4468457;32;20450;-68
2023/07/26 10:42:27;;;;;;;3.53;2.53;;;;;;;19.23;100.00;97831.59;4479175;32;20084;-69
2023/07/26 10:45:01;;;;;;;1.73;1.52;;;;;;;19.20;100.00;97834.69;4484411;31;20169;-69
2023/07/26 10:47:29;;;;;;;6.65;1.85;;;;;;;18.91;100.00;97823.66;4484259;31;20097;-69
2023/07/26 10:50:07;;;;;;;2.25;1.67;;;;;;;18.81;100.00;97824.13;4484392;32;20084;-69
2023/07/26 10:52:36;;;;;;;2.30;2.08;;;;;;;18.70;100.00;97840.69;4472958;31;20133;-68
2023/07/26 10:55:26;;;;;;;3.03;1.95;;;;;;;18.70;100.00;97838.88;4468833;32;20134;-68
2023/07/26 10:57:57;;;;;;;1.73;1.50;;;;;;;18.72;100.00;97841.31;4466326;32;20178;-68
2023/07/26 11:00:34;;;;;;;2.15;1.75;;;;;;;18.58;100.00;97841.38;4467351;32;20169;-68
2023/07/26 11:03:02;;;;;;;4.62;1.80;;;;;;;18.40;100.00;97844.72;4467398;32;20084;-68
2023/07/26 11:05:30;;;;;;;4.03;1.75;;;;;;;18.47;100.00;97836.75;4467341;32;20112;-69
2023/07/26 11:08:04;;;;;;;2.90;1.70;;;;;;;18.70;100.00;97840.69;4466906;32;20088;-70
2023/07/26 11:10:36;;;;;;;2.53;1.85;;;;;;;18.68;100.00;97835.59;4465767;32;20114;-68
2023/07/26 11:13:16;;;;;;;1.67;1.58;;;;;;;19.49;100.00;97836.72;4465527;32;20095;-69
2023/07/26 11:15:47;;;;;;;2.58;1.70;;;;;;;20.17;100.00;97839.56;4465846;32;20093;-69
2023/07/26 11:18:39;;;;;;;1.77;1.40;;;;;;;20.00;99.96;97845.47;4466256;32;20414;-69
2023/07/26 11:21:13;;;;;;;2.00;1.50;;;;;;;19.92;100.00;97835.13;4465961;32;20084;-70
2023/07/26 11:23:41;;;;;;;1.87;1.67;;;;;;;19.78;100.00;97823.00;4466874;32;20546;-70
2023/07/26 11:26:11;;;;;;;2.65;1.35;;;;;;;19.60;100.00;97842.34;4467928;32;20092;-70
2023/07/26 11:28:39;;;;;;;1.62;1.52;;;;;;;19.56;100.00;97836.69;4468453;32;20080;-71
2023/07/26 11:31:06;;;;;;;1.42;1.23;;;;;;;20.11;99.51;97843.13;4468238;32;20096;-71
2023/07/26 11:33:40;;;;;;;3.12;1.62;;;;;;;19.98;97.51;97836.09;4468352;32;20556;-71